sensor_id;sensor_type;location;lat;lon;timestamp;P1;durP1;ratioP1;P2;durP2;ratioP2
16524;SDS011;8375;33.594;-117.718;2023-04-24T00:00:20;10.13;;;4.33;;
16524;SDS011;8375;33.594;-117.718;2023-04-24T00:02:48;13.87;;;4.73;;
16524;SDS011;8375;33.594;-117.718;2023-04-24T00:05:17;9.30;;;4.23;;
16524;SDS011;8375;33.594;-117.718;2023-04-24T00:07:46;10.07;;;4.20;;
16524;SDS011;8375;33.594;-117.718;2023-04-24T00:10:19;13.50;;;4.90;;
16524;SDS011;8375;33.594;-117.718;2023-04-24T00:12:48;12.73;;;4.90;;
16524;SDS011;8375;33.594;-117.718;2023-04-24T00:15:17;14.87;;;5.30;;
16524;SDS011;8375;33.594;-117.718;2023-04-24T00:17:46;13.50;;;4.83;;
16524;SDS011;8375;33.594;-117.718;2023-04-24T00:20:14;14.53;;;4.73;;
16524;SDS011;8375;33.594;-117.718;2023-04-24T00:22:44;14.43;;;4.87;;
16524;SDS011;8375;33.594;-117.718;2023-04-24T00:25:13;12.70;;;4.83;;
16524;SDS011;8375;33.594;-117.718;2023-04-24T00:27:43;15.90;;;5.00;;
16524;SDS011;8375;33.594;-117.718;2023-04-24T00:30:12;9.93;;;5.00;;
16524;SDS011;8375;33.594;-117.718;2023-04-24T00:32:41;12.67;;;4.63;;
16524;SDS011;8375;33.594;-117.718;2023-04-24T00:35:09;14.10;;;5.10;;
16524;SDS011;8375;33.594;-117.718;2023-04-24T00:37:38;13.73;;;4.90;;
16524;SDS011;8375;33.594;-117.718;2023-04-24T00:40:07;11.40;;;5.00;;
16524;SDS011;8375;33.594;-117.718;2023-04-24T00:42:37;11.67;;;4.73;;
16524;SDS011;8375;33.594;-117.718;2023-04-24T00:45:08;15.83;;;5.40;;
16524;SDS011;8375;33.594;-117.718;2023-04-24T00:47:37;13.07;;;4.90;;
16524;SDS011;8375;33.594;-117.718;2023-04-24T00:50:07;14.97;;;5.23;;
16524;SDS011;8375;33.594;-117.718;2023-04-24T00:52:36;12.83;;;5.00;;
16524;SDS011;8375;33.594;-117.718;2023-04-24T00:55:06;15.37;;;4.93;;
16524;SDS011;8375;33.594;-117.718;2023-04-24T00:57:36;10.97;;;4.83;;
16524;SDS011;8375;33.594;-117.718;2023-04-24T01:00:05;14.70;;;5.40;;
16524;SDS011;8375;33.594;-117.718;2023-04-24T01:02:38;12.73;;;4.73;;
16524;SDS011;8375;33.594;-117.718;2023-04-24T01:05:10;13.60;;;5.47;;
16524;SDS011;8375;33.594;-117.718;2023-04-24T01:07:41;13.87;;;5.43;;
16524;SDS011;8375;33.594;-117.718;2023-04-24T01:10:11;12.20;;;5.00;;
16524;SDS011;8375;33.594;-117.718;2023-04-24T01:12:42;15.90;;;6.20;;
16524;SDS011;8375;33.594;-117.718;2023-04-24T01:15:13;13.93;;;5.40;;
16524;SDS011;8375;33.594;-117.718;2023-04-24T01:17:41;12.27;;;5.97;;
16524;SDS011;8375;33.594;-117.718;2023-04-24T01:20:10;14.27;;;5.53;;
16524;SDS011;8375;33.594;-117.718;2023-04-24T01:22:42;14.43;;;6.20;;
16524;SDS011;8375;33.594;-117.718;2023-04-24T01:25:11;15.07;;;6.57;;
16524;SDS011;8375;33.594;-117.718;2023-04-24T01:27:40;10.73;;;5.57;;
16524;SDS011;8375;33.594;-117.718;2023-04-24T01:30:09;13.80;;;6.00;;
16524;SDS011;8375;33.594;-117.718;2023-04-24T01:32:39;18.80;;;6.90;;
16524;SDS011;8375;33.594;-117.718;2023-04-24T01:35:10;14.00;;;6.27;;
16524;SDS011;8375;33.594;-117.718;2023-04-24T01:37:38;16.47;;;6.47;;
16524;SDS011;8375;33.594;-117.718;2023-04-24T01:40:09;15.93;;;6.87;;
16524;SDS011;8375;33.594;-117.718;2023-04-24T01:42:38;14.40;;;5.97;;
16524;SDS011;8375;33.594;-117.718;2023-04-24T01:45:10;18.47;;;6.33;;
16524;SDS011;8375;33.594;-117.718;2023-04-24T01:47:40;14.60;;;6.10;;
16524;SDS011;8375;33.594;-117.718;2023-04-24T01:50:09;15.07;;;6.70;;
16524;SDS011;8375;33.594;-117.718;2023-04-24T01:52:38;16.17;;;6.27;;
16524;SDS011;8375;33.594;-117.718;2023-04-24T01:55:07;17.30;;;6.87;;
16524;SDS011;8375;33.594;-117.718;2023-04-24T01:57:38;15.17;;;5.90;;
16524;SDS011;8375;33.594;-117.718;2023-04-24T02:00:08;21.87;;;7.00;;
16524;SDS011;8375;33.594;-117.718;2023-04-24T02:02:39;16.03;;;6.60;;
16524;SDS011;8375;33.594;-117.718;2023-04-24T02:05:08;15.63;;;6.50;;
16524;SDS011;8375;33.594;-117.718;2023-04-24T02:07:37;15.30;;;6.40;;
16524;SDS011;8375;33.594;-117.718;2023-04-24T02:10:06;13.17;;;5.70;;
16524;SDS011;8375;33.594;-117.718;2023-04-24T02:12:37;15.07;;;6.17;;
16524;SDS011;8375;33.594;-117.718;2023-04-24T02:15:05;16.63;;;6.13;;
16524;SDS011;8375;33.594;-117.718;2023-04-24T02:17:34;23.40;;;6.93;;
16524;SDS011;8375;33.594;-117.718;2023-04-24T02:20:04;21.40;;;6.63;;
16524;SDS011;8375;33.594;-117.718;2023-04-24T02:22:33;15.23;;;5.90;;
16524;SDS011;8375;33.594;-117.718;2023-04-24T02:25:02;14.40;;;6.47;;
16524;SDS011;8375;33.594;-117.718;2023-04-24T02:27:31;15.73;;;6.23;;
16524;SDS011;8375;33.594;-117.718;2023-04-24T02:30:01;20.17;;;6.27;;
16524;SDS011;8375;33.594;-117.718;2023-04-24T02:32:30;14.07;;;5.90;;
16524;SDS011;8375;33.594;-117.718;2023-04-24T02:34:59;15.27;;;6.20;;
16524;SDS011;8375;33.594;-117.718;2023-04-24T02:37:28;12.37;;;6.37;;
16524;SDS011;8375;33.594;-117.718;2023-04-24T02:39:56;18.97;;;6.37;;
16524;SDS011;8375;33.594;-117.718;2023-04-24T02:42:25;16.60;;;6.97;;
16524;SDS011;8375;33.594;-117.718;2023-04-24T02:44:54;19.43;;;6.80;;
16524;SDS011;8375;33.594;-117.718;2023-04-24T02:47:24;14.53;;;6.37;;
16524;SDS011;8375;33.594;-117.718;2023-04-24T02:49:53;18.80;;;6.70;;
16524;SDS011;8375;33.594;-117.718;2023-04-24T02:52:21;15.93;;;6.40;;
16524;SDS011;8375;33.594;-117.718;2023-04-24T02:54:50;16.83;;;6.40;;
16524;SDS011;8375;33.594;-117.718;2023-04-24T02:57:19;20.53;;;7.13;;
16524;SDS011;8375;33.594;-117.718;2023-04-24T02:59:48;19.73;;;6.80;;
16524;SDS011;8375;33.594;-117.718;2023-04-24T03:02:17;17.23;;;6.60;;
16524;SDS011;8375;33.594;-117.718;2023-04-24T03:04:48;18.40;;;7.50;;
16524;SDS011;8375;33.594;-117.718;2023-04-24T03:07:17;17.93;;;6.93;;
16524;SDS011;8375;33.594;-117.718;2023-04-24T03:09:46;21.67;;;7.00;;
16524;SDS011;8375;33.594;-117.718;2023-04-24T03:12:15;17.53;;;7.40;;
16524;SDS011;8375;33.594;-117.718;2023-04-24T03:14:43;22.27;;;7.07;;
16524;SDS011;8375;33.594;-117.718;2023-04-24T03:17:12;18.93;;;7.50;;
16524;SDS011;8375;33.594;-117.718;2023-04-24T03:19:41;19.27;;;7.10;;
16524;SDS011;8375;33.594;-117.718;2023-04-24T03:22:11;24.33;;;6.77;;
16524;SDS011;8375;33.594;-117.718;2023-04-24T03:24:40;16.30;;;6.83;;
16524;SDS011;8375;33.594;-117.718;2023-04-24T03:27:09;21.43;;;7.37;;
16524;SDS011;8375;33.594;-117.718;2023-04-24T03:29:37;24.47;;;7.97;;
16524;SDS011;8375;33.594;-117.718;2023-04-24T03:32:06;22.03;;;7.60;;
16524;SDS011;8375;33.594;-117.718;2023-04-24T03:34:35;20.27;;;7.63;;
16524;SDS011;8375;33.594;-117.718;2023-04-24T03:37:03;17.73;;;7.20;;
16524;SDS011;8375;33.594;-117.718;2023-04-24T03:39:34;21.30;;;7.63;;
16524;SDS011;8375;33.594;-117.718;2023-04-24T03:42:02;22.30;;;7.50;;
16524;SDS011;8375;33.594;-117.718;2023-04-24T03:44:31;21.07;;;7.97;;
16524;SDS011;8375;33.594;-117.718;2023-04-24T03:47:00;18.80;;;7.33;;
16524;SDS011;8375;33.594;-117.718;2023-04-24T03:49:29;15.00;;;7.20;;
16524;SDS011;8375;33.594;-117.718;2023-04-24T03:51:58;18.73;;;7.53;;
16524;SDS011;8375;33.594;-117.718;2023-04-24T03:54:26;17.03;;;7.83;;
16524;SDS011;8375;33.594;-117.718;2023-04-24T03:56:57;19.40;;;7.37;;
16524;SDS011;8375;33.594;-117.718;2023-04-24T03:59:27;20.47;;;7.70;;
16524;SDS011;8375;33.594;-117.718;2023-04-24T04:01:55;20.20;;;8.30;;
16524;SDS011;8375;33.594;-117.718;2023-04-24T04:04:24;19.33;;;7.57;;
16524;SDS011;8375;33.594;-117.718;2023-04-24T04:06:53;17.83;;;7.50;;
16524;SDS011;8375;33.594;-117.718;2023-04-24T04:09:21;19.67;;;7.17;;
16524;SDS011;8375;33.594;-117.718;2023-04-24T04:11:50;27.20;;;8.70;;
16524;SDS011;8375;33.594;-117.718;2023-04-24T04:14:21;18.50;;;8.23;;
16524;SDS011;8375;33.594;-117.718;2023-04-24T04:16:49;22.20;;;8.77;;
16524;SDS011;8375;33.594;-117.718;2023-04-24T04:19:18;20.40;;;8.50;;
16524;SDS011;8375;33.594;-117.718;2023-04-24T04:21:47;17.27;;;7.20;;
16524;SDS011;8375;33.594;-117.718;2023-04-24T04:24:19;19.87;;;8.00;;
16524;SDS011;8375;33.594;-117.718;2023-04-24T04:26:48;16.83;;;6.97;;
16524;SDS011;8375;33.594;-117.718;2023-04-24T04:29:17;18.27;;;7.70;;
16524;SDS011;8375;33.594;-117.718;2023-04-24T04:31:47;20.67;;;7.63;;
16524;SDS011;8375;33.594;-117.718;2023-04-24T04:34:16;17.60;;;7.97;;
16524;SDS011;8375;33.594;-117.718;2023-04-24T04:36:45;17.37;;;7.83;;
16524;SDS011;8375;33.594;-117.718;2023-04-24T04:39:14;16.30;;;7.37;;
16524;SDS011;8375;33.594;-117.718;2023-04-24T04:41:44;17.37;;;8.53;;
16524;SDS011;8375;33.594;-117.718;2023-04-24T04:44:14;25.73;;;8.97;;
16524;SDS011;8375;33.594;-117.718;2023-04-24T04:46:43;17.97;;;8.37;;
16524;SDS011;8375;33.594;-117.718;2023-04-24T04:49:13;22.23;;;9.07;;
16524;SDS011;8375;33.594;-117.718;2023-04-24T04:51:43;22.70;;;8.03;;
16524;SDS011;8375;33.594;-117.718;2023-04-24T04:54:11;19.20;;;7.97;;
16524;SDS011;8375;33.594;-117.718;2023-04-24T04:56:40;22.53;;;8.60;;
16524;SDS011;8375;33.594;-117.718;2023-04-24T04:59:09;26.60;;;8.80;;
16524;SDS011;8375;33.594;-117.718;2023-04-24T05:01:38;25.43;;;8.10;;
16524;SDS011;8375;33.594;-117.718;2023-04-24T05:04:07;18.73;;;8.10;;
16524;SDS011;8375;33.594;-117.718;2023-04-24T05:06:37;19.73;;;7.90;;
16524;SDS011;8375;33.594;-117.718;2023-04-24T05:09:06;24.60;;;8.27;;
16524;SDS011;8375;33.594;-117.718;2023-04-24T05:11:35;23.13;;;9.20;;
16524;SDS011;8375;33.594;-117.718;2023-04-24T05:14:03;22.63;;;8.07;;
16524;SDS011;8375;33.594;-117.718;2023-04-24T05:16:32;19.57;;;8.33;;
16524;SDS011;8375;33.594;-117.718;2023-04-24T05:19:02;16.90;;;7.70;;
16524;SDS011;8375;33.594;-117.718;2023-04-24T05:21:31;21.03;;;8.20;;
16524;SDS011;8375;33.594;-117.718;2023-04-24T05:24:01;24.40;;;9.03;;
16524;SDS011;8375;33.594;-117.718;2023-04-24T05:26:30;21.20;;;8.77;;
16524;SDS011;8375;33.594;-117.718;2023-04-24T05:28:59;22.03;;;9.40;;
16524;SDS011;8375;33.594;-117.718;2023-04-24T05:31:28;19.07;;;8.27;;
16524;SDS011;8375;33.594;-117.718;2023-04-24T05:33:57;22.23;;;8.00;;
16524;SDS011;8375;33.594;-117.718;2023-04-24T05:36:26;23.87;;;8.40;;
16524;SDS011;8375;33.594;-117.718;2023-04-24T05:38:54;19.60;;;8.20;;
16524;SDS011;8375;33.594;-117.718;2023-04-24T05:41:25;21.13;;;8.97;;
16524;SDS011;8375;33.594;-117.718;2023-04-24T05:43:54;25.13;;;9.67;;
16524;SDS011;8375;33.594;-117.718;2023-04-24T05:46:22;20.67;;;8.03;;
16524;SDS011;8375;33.594;-117.718;2023-04-24T05:48:51;18.40;;;8.20;;
16524;SDS011;8375;33.594;-117.718;2023-04-24T05:51:20;21.97;;;7.40;;
16524;SDS011;8375;33.594;-117.718;2023-04-24T05:53:49;22.17;;;8.03;;
16524;SDS011;8375;33.594;-117.718;2023-04-24T05:56:17;22.90;;;8.43;;
16524;SDS011;8375;33.594;-117.718;2023-04-24T05:58:48;25.83;;;8.63;;
16524;SDS011;8375;33.594;-117.718;2023-04-24T06:01:16;21.40;;;8.90;;
16524;SDS011;8375;33.594;-117.718;2023-04-24T06:03:45;22.10;;;9.03;;
16524;SDS011;8375;33.594;-117.718;2023-04-24T06:06:14;18.03;;;8.87;;
16524;SDS011;8375;33.594;-117.718;2023-04-24T06:08:43;20.57;;;8.30;;
16524;SDS011;8375;33.594;-117.718;2023-04-24T06:11:11;20.47;;;9.43;;
16524;SDS011;8375;33.594;-117.718;2023-04-24T06:13:40;20.40;;;7.57;;
16524;SDS011;8375;33.594;-117.718;2023-04-24T06:16:11;19.57;;;8.23;;
16524;SDS011;8375;33.594;-117.718;2023-04-24T06:18:39;20.20;;;9.13;;
16524;SDS011;8375;33.594;-117.718;2023-04-24T06:21:09;21.47;;;7.87;;
16524;SDS011;8375;33.594;-117.718;2023-04-24T06:23:38;26.13;;;7.70;;
16524;SDS011;8375;33.594;-117.718;2023-04-24T06:26:07;21.87;;;7.93;;
16524;SDS011;8375;33.594;-117.718;2023-04-24T06:28:36;20.30;;;8.27;;
16524;SDS011;8375;33.594;-117.718;2023-04-24T06:31:05;19.80;;;8.47;;
16524;SDS011;8375;33.594;-117.718;2023-04-24T06:33:35;19.30;;;8.43;;
16524;SDS011;8375;33.594;-117.718;2023-04-24T06:36:04;19.30;;;8.17;;
16524;SDS011;8375;33.594;-117.718;2023-04-24T06:38:33;21.90;;;8.80;;
16524;SDS011;8375;33.594;-117.718;2023-04-24T06:41:02;20.67;;;7.80;;
16524;SDS011;8375;33.594;-117.718;2023-04-24T06:43:31;26.53;;;9.00;;
16524;SDS011;8375;33.594;-117.718;2023-04-24T06:46:00;18.03;;;8.10;;
16524;SDS011;8375;33.594;-117.718;2023-04-24T06:48:29;19.97;;;8.77;;
16524;SDS011;8375;33.594;-117.718;2023-04-24T06:50:59;23.47;;;9.87;;
16524;SDS011;8375;33.594;-117.718;2023-04-24T06:53:28;17.47;;;7.77;;
16524;SDS011;8375;33.594;-117.718;2023-04-24T06:55:57;22.97;;;8.57;;
16524;SDS011;8375;33.594;-117.718;2023-04-24T06:58:25;18.77;;;8.47;;
16524;SDS011;8375;33.594;-117.718;2023-04-24T07:00:55;25.53;;;10.07;;
16524;SDS011;8375;33.594;-117.718;2023-04-24T07:03:23;23.67;;;9.10;;
16524;SDS011;8375;33.594;-117.718;2023-04-24T07:05:52;23.13;;;8.93;;
16524;SDS011;8375;33.594;-117.718;2023-04-24T07:08:25;24.43;;;8.87;;
16524;SDS011;8375;33.594;-117.718;2023-04-24T07:10:53;23.13;;;9.03;;
16524;SDS011;8375;33.594;-117.718;2023-04-24T07:13:22;28.10;;;8.70;;
16524;SDS011;8375;33.594;-117.718;2023-04-24T07:15:52;25.03;;;8.27;;
16524;SDS011;8375;33.594;-117.718;2023-04-24T07:18:21;20.90;;;7.80;;
16524;SDS011;8375;33.594;-117.718;2023-04-24T07:20:50;18.97;;;8.53;;
16524;SDS011;8375;33.594;-117.718;2023-04-24T07:23:19;21.30;;;8.70;;
16524;SDS011;8375;33.594;-117.718;2023-04-24T07:25:49;21.97;;;8.73;;
16524;SDS011;8375;33.594;-117.718;2023-04-24T07:28:18;28.80;;;8.67;;
16524;SDS011;8375;33.594;-117.718;2023-04-24T07:30:47;20.93;;;8.53;;
16524;SDS011;8375;33.594;-117.718;2023-04-24T07:33:16;22.40;;;8.63;;
16524;SDS011;8375;33.594;-117.718;2023-04-24T07:35:44;26.63;;;8.67;;
16524;SDS011;8375;33.594;-117.718;2023-04-24T07:38:13;22.40;;;7.70;;
16524;SDS011;8375;33.594;-117.718;2023-04-24T07:40:42;25.67;;;9.20;;
16524;SDS011;8375;33.594;-117.718;2023-04-24T07:43:12;23.30;;;9.10;;
16524;SDS011;8375;33.594;-117.718;2023-04-24T07:45:41;24.60;;;8.70;;
16524;SDS011;8375;33.594;-117.718;2023-04-24T07:48:09;29.40;;;8.83;;
16524;SDS011;8375;33.594;-117.718;2023-04-24T07:50:40;24.77;;;8.97;;
16524;SDS011;8375;33.594;-117.718;2023-04-24T07:53:09;26.53;;;9.50;;
16524;SDS011;8375;33.594;-117.718;2023-04-24T07:55:37;21.87;;;8.93;;
16524;SDS011;8375;33.594;-117.718;2023-04-24T07:58:06;26.63;;;9.27;;
16524;SDS011;8375;33.594;-117.718;2023-04-24T08:00:36;26.33;;;9.33;;
16524;SDS011;8375;33.594;-117.718;2023-04-24T08:03:05;23.60;;;8.43;;
16524;SDS011;8375;33.594;-117.718;2023-04-24T08:05:34;23.37;;;9.47;;
16524;SDS011;8375;33.594;-117.718;2023-04-24T08:08:03;24.47;;;9.37;;
16524;SDS011;8375;33.594;-117.718;2023-04-24T08:10:31;30.37;;;9.27;;
16524;SDS011;8375;33.594;-117.718;2023-04-24T08:13:00;26.70;;;9.57;;
16524;SDS011;8375;33.594;-117.718;2023-04-24T08:15:29;30.63;;;9.17;;
16524;SDS011;8375;33.594;-117.718;2023-04-24T08:17:59;33.67;;;9.47;;
16524;SDS011;8375;33.594;-117.718;2023-04-24T08:20:28;24.27;;;9.57;;
16524;SDS011;8375;33.594;-117.718;2023-04-24T08:22:56;26.27;;;9.53;;
16524;SDS011;8375;33.594;-117.718;2023-04-24T08:25:25;23.83;;;9.33;;
16524;SDS011;8375;33.594;-117.718;2023-04-24T08:27:54;26.30;;;9.83;;
16524;SDS011;8375;33.594;-117.718;2023-04-24T08:30:22;24.80;;;9.77;;
16524;SDS011;8375;33.594;-117.718;2023-04-24T08:32:51;22.47;;;8.90;;
16524;SDS011;8375;33.594;-117.718;2023-04-24T08:35:21;24.07;;;9.90;;
16524;SDS011;8375;33.594;-117.718;2023-04-24T08:37:51;23.47;;;8.30;;
16524;SDS011;8375;33.594;-117.718;2023-04-24T08:40:22;28.10;;;8.60;;
16524;SDS011;8375;33.594;-117.718;2023-04-24T08:42:55;22.23;;;8.50;;
16524;SDS011;8375;33.594;-117.718;2023-04-24T08:45:24;21.37;;;8.60;;
16524;SDS011;8375;33.594;-117.718;2023-04-24T08:47:53;19.87;;;8.20;;
16524;SDS011;8375;33.594;-117.718;2023-04-24T08:50:23;23.60;;;8.60;;
16524;SDS011;8375;33.594;-117.718;2023-04-24T08:52:52;27.37;;;8.90;;
16524;SDS011;8375;33.594;-117.718;2023-04-24T08:55:22;19.40;;;8.83;;
16524;SDS011;8375;33.594;-117.718;2023-04-24T08:57:52;23.67;;;8.17;;
16524;SDS011;8375;33.594;-117.718;2023-04-24T09:00:21;24.23;;;7.90;;
16524;SDS011;8375;33.594;-117.718;2023-04-24T09:02:50;17.67;;;7.27;;
16524;SDS011;8375;33.594;-117.718;2023-04-24T09:05:20;20.43;;;8.07;;
16524;SDS011;8375;33.594;-117.718;2023-04-24T09:07:53;19.77;;;8.80;;
16524;SDS011;8375;33.594;-117.718;2023-04-24T09:10:23;23.50;;;8.40;;
16524;SDS011;8375;33.594;-117.718;2023-04-24T09:12:56;26.03;;;8.57;;
16524;SDS011;8375;33.594;-117.718;2023-04-24T09:15:27;24.03;;;9.57;;
16524;SDS011;8375;33.594;-117.718;2023-04-24T09:17:56;27.07;;;8.07;;
16524;SDS011;8375;33.594;-117.718;2023-04-24T09:20:27;23.57;;;8.87;;
16524;SDS011;8375;33.594;-117.718;2023-04-24T09:22:56;27.20;;;8.87;;
16524;SDS011;8375;33.594;-117.718;2023-04-24T09:25:25;20.33;;;8.40;;
16524;SDS011;8375;33.594;-117.718;2023-04-24T09:28:00;22.83;;;8.33;;
16524;SDS011;8375;33.594;-117.718;2023-04-24T09:30:29;27.77;;;8.93;;
16524;SDS011;8375;33.594;-117.718;2023-04-24T09:35:48;25.27;;;8.67;;
16524;SDS011;8375;33.594;-117.718;2023-04-24T09:38:17;18.83;;;8.10;;
16524;SDS011;8375;33.594;-117.718;2023-04-24T09:40:48;21.40;;;9.27;;
16524;SDS011;8375;33.594;-117.718;2023-04-24T09:43:17;25.20;;;8.43;;
16524;SDS011;8375;33.594;-117.718;2023-04-24T09:45:45;23.00;;;8.80;;
16524;SDS011;8375;33.594;-117.718;2023-04-24T09:48:14;20.17;;;8.23;;
16524;SDS011;8375;33.594;-117.718;2023-04-24T09:50:48;23.63;;;8.17;;
16524;SDS011;8375;33.594;-117.718;2023-04-24T09:53:19;21.27;;;8.17;;
16524;SDS011;8375;33.594;-117.718;2023-04-24T09:55:52;28.30;;;8.97;;
16524;SDS011;8375;33.594;-117.718;2023-04-24T09:58:24;19.20;;;8.17;;
16524;SDS011;8375;33.594;-117.718;2023-04-24T10:00:54;18.73;;;7.80;;
16524;SDS011;8375;33.594;-117.718;2023-04-24T10:03:23;22.87;;;8.10;;
16524;SDS011;8375;33.594;-117.718;2023-04-24T10:05:59;19.23;;;7.13;;
16524;SDS011;8375;33.594;-117.718;2023-04-24T10:08:34;18.37;;;7.60;;
16524;SDS011;8375;33.594;-117.718;2023-04-24T10:11:04;24.07;;;7.67;;
16524;SDS011;8375;33.594;-117.718;2023-04-24T10:13:33;22.27;;;9.03;;
16524;SDS011;8375;33.594;-117.718;2023-04-24T10:16:02;18.37;;;8.17;;
16524;SDS011;8375;33.594;-117.718;2023-04-24T10:18:32;17.00;;;7.60;;
16524;SDS011;8375;33.594;-117.718;2023-04-24T10:21:03;30.20;;;8.33;;
16524;SDS011;8375;33.594;-117.718;2023-04-24T10:23:31;28.27;;;8.57;;
16524;SDS011;8375;33.594;-117.718;2023-04-24T10:26:00;20.83;;;8.30;;
16524;SDS011;8375;33.594;-117.718;2023-04-24T10:28:30;18.10;;;7.37;;
16524;SDS011;8375;33.594;-117.718;2023-04-24T10:30:59;24.90;;;9.53;;
16524;SDS011;8375;33.594;-117.718;2023-04-24T10:33:28;22.47;;;7.87;;
16524;SDS011;8375;33.594;-117.718;2023-04-24T10:35:58;22.97;;;8.57;;
16524;SDS011;8375;33.594;-117.718;2023-04-24T10:38:29;20.67;;;8.33;;
16524;SDS011;8375;33.594;-117.718;2023-04-24T10:41:06;28.87;;;9.20;;
16524;SDS011;8375;33.594;-117.718;2023-04-24T10:43:41;24.80;;;8.37;;
16524;SDS011;8375;33.594;-117.718;2023-04-24T10:46:10;21.30;;;8.37;;
16524;SDS011;8375;33.594;-117.718;2023-04-24T10:48:52;15.13;;;8.20;;
16524;SDS011;8375;33.594;-117.718;2023-04-24T10:51:21;21.73;;;8.33;;
16524;SDS011;8375;33.594;-117.718;2023-04-24T10:53:53;20.50;;;8.60;;
16524;SDS011;8375;33.594;-117.718;2023-04-24T10:56:24;29.20;;;9.07;;
16524;SDS011;8375;33.594;-117.718;2023-04-24T10:58:54;19.27;;;8.33;;
16524;SDS011;8375;33.594;-117.718;2023-04-24T11:01:23;21.73;;;9.03;;
16524;SDS011;8375;33.594;-117.718;2023-04-24T11:03:55;16.67;;;7.33;;
16524;SDS011;8375;33.594;-117.718;2023-04-24T11:06:31;21.37;;;7.77;;
16524;SDS011;8375;33.594;-117.718;2023-04-24T11:09:06;18.67;;;7.80;;
16524;SDS011;8375;33.594;-117.718;2023-04-24T11:11:38;17.43;;;8.03;;
16524;SDS011;8375;33.594;-117.718;2023-04-24T11:14:14;16.03;;;6.90;;
16524;SDS011;8375;33.594;-117.718;2023-04-24T11:16:43;15.33;;;7.57;;
16524;SDS011;8375;33.594;-117.718;2023-04-24T11:19:20;21.00;;;7.57;;
16524;SDS011;8375;33.594;-117.718;2023-04-24T11:21:55;16.80;;;8.07;;
16524;SDS011;8375;33.594;-117.718;2023-04-24T11:24:28;17.13;;;6.73;;
16524;SDS011;8375;33.594;-117.718;2023-04-24T11:27:11;17.70;;;7.17;;
16524;SDS011;8375;33.594;-117.718;2023-04-24T11:29:42;18.67;;;7.03;;
16524;SDS011;8375;33.594;-117.718;2023-04-24T11:32:24;20.73;;;7.67;;
16524;SDS011;8375;33.594;-117.718;2023-04-24T11:34:54;20.83;;;8.07;;
16524;SDS011;8375;33.594;-117.718;2023-04-24T11:37:25;15.67;;;6.83;;
16524;SDS011;8375;33.594;-117.718;2023-04-24T11:39:57;13.97;;;7.50;;
16524;SDS011;8375;33.594;-117.718;2023-04-24T11:42:26;16.13;;;7.97;;
16524;SDS011;8375;33.594;-117.718;2023-04-24T11:44:56;15.60;;;7.20;;
16524;SDS011;8375;33.594;-117.718;2023-04-24T11:47:28;16.83;;;7.27;;
16524;SDS011;8375;33.594;-117.718;2023-04-24T11:49:59;19.00;;;8.30;;
16524;SDS011;8375;33.594;-117.718;2023-04-24T11:52:28;22.30;;;8.10;;
16524;SDS011;8375;33.594;-117.718;2023-04-24T11:54:59;18.07;;;8.07;;
16524;SDS011;8375;33.594;-117.718;2023-04-24T11:57:29;23.27;;;8.97;;
16524;SDS011;8375;33.594;-117.718;2023-04-24T11:59:59;17.53;;;8.37;;
16524;SDS011;8375;33.594;-117.718;2023-04-24T12:02:28;20.40;;;8.93;;
16524;SDS011;8375;33.594;-117.718;2023-04-24T12:04:57;17.70;;;8.33;;
16524;SDS011;8375;33.594;-117.718;2023-04-24T12:07:26;16.80;;;6.73;;
16524;SDS011;8375;33.594;-117.718;2023-04-24T12:09:56;20.37;;;8.80;;
16524;SDS011;8375;33.594;-117.718;2023-04-24T12:12:27;18.47;;;7.80;;
16524;SDS011;8375;33.594;-117.718;2023-04-24T12:14:56;17.70;;;7.57;;
16524;SDS011;8375;33.594;-117.718;2023-04-24T12:17:26;15.20;;;7.97;;
16524;SDS011;8375;33.594;-117.718;2023-04-24T12:19:59;23.80;;;9.20;;
16524;SDS011;8375;33.594;-117.718;2023-04-24T12:22:35;21.70;;;9.10;;
16524;SDS011;8375;33.594;-117.718;2023-04-24T12:25:14;21.37;;;9.07;;
16524;SDS011;8375;33.594;-117.718;2023-04-24T12:27:43;24.80;;;9.30;;
16524;SDS011;8375;33.594;-117.718;2023-04-24T12:30:13;20.67;;;8.80;;
16524;SDS011;8375;33.594;-117.718;2023-04-24T12:32:43;23.90;;;9.10;;
16524;SDS011;8375;33.594;-117.718;2023-04-24T12:35:13;25.40;;;9.47;;
16524;SDS011;8375;33.594;-117.718;2023-04-24T12:37:46;21.10;;;9.10;;
16524;SDS011;8375;33.594;-117.718;2023-04-24T12:40:17;22.93;;;8.27;;
16524;SDS011;8375;33.594;-117.718;2023-04-24T12:42:47;18.43;;;7.50;;
16524;SDS011;8375;33.594;-117.718;2023-04-24T12:45:17;18.93;;;8.40;;
16524;SDS011;8375;33.594;-117.718;2023-04-24T12:47:48;19.87;;;7.77;;
16524;SDS011;8375;33.594;-117.718;2023-04-24T12:50:17;21.37;;;8.37;;
16524;SDS011;8375;33.594;-117.718;2023-04-24T12:52:46;18.13;;;7.47;;
16524;SDS011;8375;33.594;-117.718;2023-04-24T12:55:15;19.07;;;8.90;;
16524;SDS011;8375;33.594;-117.718;2023-04-24T12:57:45;14.17;;;6.93;;
16524;SDS011;8375;33.594;-117.718;2023-04-24T13:00:14;19.73;;;7.43;;
16524;SDS011;8375;33.594;-117.718;2023-04-24T13:02:43;21.43;;;8.23;;
16524;SDS011;8375;33.594;-117.718;2023-04-24T13:05:12;17.97;;;8.07;;
16524;SDS011;8375;33.594;-117.718;2023-04-24T13:07:41;18.27;;;8.17;;
16524;SDS011;8375;33.594;-117.718;2023-04-24T13:10:10;15.97;;;7.53;;
16524;SDS011;8375;33.594;-117.718;2023-04-24T13:12:40;17.57;;;7.90;;
16524;SDS011;8375;33.594;-117.718;2023-04-24T13:15:11;18.73;;;7.27;;
16524;SDS011;8375;33.594;-117.718;2023-04-24T13:17:39;16.70;;;8.13;;
16524;SDS011;8375;33.594;-117.718;2023-04-24T13:20:08;23.30;;;8.13;;
16524;SDS011;8375;33.594;-117.718;2023-04-24T13:22:37;17.07;;;8.50;;
16524;SDS011;8375;33.594;-117.718;2023-04-24T13:25:06;15.90;;;8.30;;
16524;SDS011;8375;33.594;-117.718;2023-04-24T13:27:37;16.13;;;7.87;;
16524;SDS011;8375;33.594;-117.718;2023-04-24T13:30:08;14.77;;;7.50;;
16524;SDS011;8375;33.594;-117.718;2023-04-24T13:32:38;19.07;;;7.70;;
16524;SDS011;8375;33.594;-117.718;2023-04-24T13:35:07;14.33;;;7.27;;
16524;SDS011;8375;33.594;-117.718;2023-04-24T13:37:36;14.67;;;7.20;;
16524;SDS011;8375;33.594;-117.718;2023-04-24T13:40:05;20.90;;;7.80;;
16524;SDS011;8375;33.594;-117.718;2023-04-24T13:42:35;16.10;;;7.17;;
16524;SDS011;8375;33.594;-117.718;2023-04-24T13:45:04;14.83;;;7.60;;
16524;SDS011;8375;33.594;-117.718;2023-04-24T13:47:35;17.00;;;8.03;;
16524;SDS011;8375;33.594;-117.718;2023-04-24T13:50:06;12.90;;;6.70;;
16524;SDS011;8375;33.594;-117.718;2023-04-24T13:52:36;19.97;;;7.77;;
16524;SDS011;8375;33.594;-117.718;2023-04-24T13:55:05;20.57;;;7.63;;
16524;SDS011;8375;33.594;-117.718;2023-04-24T13:57:34;15.93;;;7.00;;
16524;SDS011;8375;33.594;-117.718;2023-04-24T14:00:03;16.93;;;7.50;;
16524;SDS011;8375;33.594;-117.718;2023-04-24T14:02:37;18.17;;;7.33;;
16524;SDS011;8375;33.594;-117.718;2023-04-24T14:05:06;16.10;;;7.00;;
16524;SDS011;8375;33.594;-117.718;2023-04-24T14:07:36;16.20;;;7.07;;
16524;SDS011;8375;33.594;-117.718;2023-04-24T14:10:05;14.93;;;7.47;;
16524;SDS011;8375;33.594;-117.718;2023-04-24T14:12:35;18.37;;;6.90;;
16524;SDS011;8375;33.594;-117.718;2023-04-24T14:15:04;15.80;;;6.47;;
16524;SDS011;8375;33.594;-117.718;2023-04-24T14:17:34;16.13;;;6.83;;
16524;SDS011;8375;33.594;-117.718;2023-04-24T14:20:05;12.67;;;6.30;;
16524;SDS011;8375;33.594;-117.718;2023-04-24T14:22:34;19.83;;;7.23;;
16524;SDS011;8375;33.594;-117.718;2023-04-24T14:25:04;13.33;;;6.70;;